Time,TemperatureF,DewpointF,PressureIn,WindDirection,WindDirectionDegrees,WindSpeedMPH,WindSpeedGustMPH,Humidity,HourlyPrecipIn,Conditions,Clouds,dailyrainin,SolarRadiationWatts/m^2,SoftwareType,DateUTC
2013-09-01 00:01:00,71.1,71.1,29.78,East,101,0.0,0.0,100,0.00,,---,0.10,0.00,VWS V14.01,2013-09-01 04:01:00,
2013-09-01 00:06:00,71.1,71.1,29.79,SE,126,0.0,4.0,100,0.00,,---,0.00,0.00,VWS V14.01,2013-09-01 04:06:00,
2013-09-01 00:11:00,70.9,70.9,29.79,SE,126,0.0,4.0,100,0.00,,---,0.00,0.00,VWS V14.01,2013-09-01 04:11:00,
2013-09-01 00:16:00,70.8,70.5,29.79,SE,126,0.0,4.0,99,0.00,,---,0.00,0.00,VWS V14.01,2013-09-01 04:16:00,
2013-09-01 00:21:00,70.6,70.3,29.79,SE,126,0.0,0.0,99,0.00,,---,0.00,0.00,VWS V14.01,2013-09-01 04:21:00,
2013-09-01 00:26:00,70.6,70.3,29.79,SE,126,0.0,0.0,99,0.00,,---,0.00,0.00,VWS V14.01,2013-09-01 04:26:00,
2013-09-01 00:31:00,70.4,70.4,29.79,SE,126,0.0,0.0,100,0.00,,---,0.00,0.00,VWS V14.01,2013-09-01 04:31:00,
2013-09-01 00:36:00,70.4,70.4,29.79,SE,126,0.0,0.0,100,0.00,,---,0.00,0.00,VWS V14.01,2013-09-01 04:36:00,
2013-09-01 00:37:00,70.4,70.4,29.79,SE,126,0.0,0.0,100,0.00,,---,0.00,0.00,VWS V14.01,2013-09-01 04:37:00,
2013-09-01 00:42:00,70.3,70.3,29.80,SE,126,0.0,0.0,100,0.00,,---,0.00,0.00,VWS V14.01,2013-09-01 04:42:00,
2013-09-01 00:47:00,70.1,70.1,29.79,SE,126,0.0,0.0,100,0.00,,---,0.00,0.00,VWS V14.01,2013-09-01 04:47:00,
2013-09-01 00:52:00,70.1,70.1,29.79,SE,126,0.0,0.0,100,0.00,,---,0.00,0.00,VWS V14.01,2013-09-01 04:52:00,
2013-09-01 00:57:00,69.9,69.9,29.79,SE,126,0.0,0.0,100,0.00,,---,0.00,0.00,VWS V14.01,2013-09-01 04:57:00,
2013-09-01 01:02:00,69.8,69.8,29.79,SE,126,0.0,0.0,100,0.00,,---,0.00,0.00,VWS V14.01,2013-09-01 05:02:00,
2013-09-01 01:07:00,69.6,69.6,29.79,SE,126,0.0,0.0,100,0.00,,---,0.00,0.00,VWS V14.01,2013-09-01 05:07:00,
2013-09-01 01:12:00,69.6,69.6,29.78,SE,126,0.0,0.0,100,0.00,,---,0.00,0.00,VWS V14.01,2013-09-01 05:12:00,
2013-09-01 01:17:00,69.6,69.6,29.78,SE,126,0.0,0.0,100,0.00,,---,0.00,0.00,VWS V14.01,2013-09-01 05:17:00,
2013-09-01 01:22:00,69.6,69.6,29.78,SE,126,0.0,0.0,100,0.00,,---,0.00,0.00,VWS V14.01,2013-09-01 05:22:00,
2013-09-01 01:27:00,69.4,69.4,29.78,SE,126,0.0,0.0,100,0.00,,---,0.00,0.00,VWS V14.01,2013-09-01 05:27:00,
2013-09-01 01:32:00,69.3,69.3,29.78,SE,126,0.0,0.0,100,0.00,,---,0.00,0.00,VWS V14.01,2013-09-01 05:32:00,
2013-09-01 01:37:00,69.3,69.3,29.78,SE,126,0.0,0.0,100,0.00,,---,0.00,0.00,VWS V14.01,2013-09-01 05:37:00,
2013-09-01 01:42:00,69.3,69.3,29.78,SE,126,0.0,0.0,100,0.00,,---,0.00,0.00,VWS V14.01,2013-09-01 05:42:00,
2013-09-01 01:47:00,69.3,69.3,29.78,SE,126,0.0,0.0,100,0.00,,---,0.00,0.00,VWS V14.01,2013-09-01 05:47:00,
2013-09-01 01:52:00,69.1,69.1,29.78,SE,126,0.0,0.0,100,0.00,,---,0.00,0.00,VWS V14.01,2013-09-01 05:52:00,
2013-09-01 01:57:00,68.9,68.9,29.78,SE,126,0.0,0.0,100,0.00,,---,0.00,0.00,VWS V14.01,2013-09-01 05:57:00,
2013-09-01 02:02:00,68.9,68.9,29.78,SE,126,0.0,0.0,100,0.00,,---,0.00,0.00,VWS V14.01,2013-09-01 06:02:00,
2013-09-01 02:07:00,68.8,68.8,29.78,SE,126,0.0,0.0,100,0.00,,---,0.00,0.00,VWS V14.01,2013-09-01 06:07:00,
2013-09-01 02:12:00,68.4,68.4,29.79,SE,126,0.0,0.0,100,0.00,,---,0.00,0.00,VWS V14.01,2013-09-01 06:12:00,
2013-09-01 02:17:00,68.4,68.4,29.78,SE,126,0.0,0.0,100,0.00,,---,0.00,0.00,VWS V14.01,2013-09-01 06:17:00,
2013-09-01 02:22:00,68.3,68.3,29.78,SE,126,0.0,0.0,100,0.00,,---,0.00,0.00,VWS V14.01,2013-09-01 06:22:00,
2013-09-01 02:27:00,68.1,68.1,29.78,SE,126,0.0,0.0,100,0.00,,---,0.00,0.00,VWS V14.01,2013-09-01 06:27:00,
2013-09-01 02:32:00,68.1,68.1,29.78,SE,126,0.0,0.0,100,0.00,,---,0.00,0.00,VWS V14.01,2013-09-01 06:32:00,
2013-09-01 02:37:00,67.9,67.9,29.78,SE,126,0.0,0.0,100,0.00,,---,0.00,0.00,VWS V14.01,2013-09-01 06:37:00,
2013-09-01 02:42:00,67.8,67.8,29.78,SE,126,0.0,0.0,100,0.00,,---,0.00,0.00,VWS V14.01,2013-09-01 06:42:00,
2013-09-01 02:47:00,67.8,67.8,29.78,SE,126,0.0,0.0,100,0.00,,---,0.00,0.00,VWS V14.01,2013-09-01 06:47:00,
2013-09-01 02:52:00,67.6,67.6,29.78,SE,126,0.0,0.0,100,0.00,,---,0.00,0.00,VWS V14.01,2013-09-01 06:52:00,
2013-09-01 02:57:00,67.6,67.6,29.78,SE,126,0.0,0.0,100,0.00,,---,0.00,0.00,VWS V14.01,2013-09-01 06:57:00,
2013-09-01 03:02:00,67.6,67.6,29.78,SE,126,0.0,0.0,100,0.01,,---,0.01,0.00,VWS V14.01,2013-09-01 07:02:00,
2013-09-01 03:07:00,67.6,67.6,29.78,SE,126,0.0,0.0,100,0.01,,---,0.01,0.00,VWS V14.01,2013-09-01 07:07:00,
2013-09-01 03:12:00,67.6,67.6,29.78,SE,126,0.0,0.0,100,0.01,,---,0.01,0.00,VWS V14.01,2013-09-01 07:12:00,
2013-09-01 03:17:00,67.8,67.8,29.78,SE,126,0.0,0.0,100,0.01,,---,0.01,0.00,VWS V14.01,2013-09-01 07:17:00,
2013-09-01 03:22:00,67.8,67.8,29.78,SE,126,0.0,0.0,100,0.01,,---,0.01,0.00,VWS V14.01,2013-09-01 07:22:00,
2013-09-01 03:27:00,67.8,67.8,29.78,SE,126,0.0,0.0,100,0.01,,---,0.01,0.00,VWS V14.01,2013-09-01 07:27:00,
2013-09-01 03:32:00,67.8,67.8,29.78,SE,126,0.0,0.0,100,0.01,,---,0.01,0.00,VWS V14.01,2013-09-01 07:32:00,
2013-09-01 03:37:00,67.8,67.8,29.78,SE,126,0.0,0.0,100,0.01,,---,0.01,0.00,VWS V14.01,2013-09-01 07:37:00,
2013-09-01 03:42:00,67.6,67.6,29.79,SE,126,0.0,0.0,100,0.01,,---,0.01,0.00,VWS V14.01,2013-09-01 07:42:00,
2013-09-01 03:47:00,67.4,67.4,29.79,SE,126,0.0,0.0,100,0.01,,---,0.01,0.00,VWS V14.01,2013-09-01 07:47:00,
2013-09-01 03:52:00,67.4,67.4,29.79,SE,126,0.0,0.0,100,0.01,,---,0.01,0.00,VWS V14.01,2013-09-01 07:52:00,
2013-09-01 03:57:00,67.3,67.3,29.79,SE,126,0.0,0.0,100,0.01,,---,0.01,0.00,VWS V14.01,2013-09-01 07:57:00,
2013-09-01 04:02:00,67.3,67.3,29.79,SE,126,0.0,0.0,100,0.00,,---,0.01,0.00,VWS V14.01,2013-09-01 08:02:00,
2013-09-01 04:07:00,67.3,67.3,29.80,SE,126,0.0,0.0,100,0.00,,---,0.01,0.00,VWS V14.01,2013-09-01 08:07:00,
2013-09-01 04:12:00,67.4,67.4,29.80,SE,126,0.0,0.0,100,0.00,,---,0.01,0.00,VWS V14.01,2013-09-01 08:12:00,
2013-09-01 04:17:00,67.6,67.6,29.80,SE,126,0.0,0.0,100,0.00,,---,0.01,0.00,VWS V14.01,2013-09-01 08:17:00,
2013-09-01 04:22:00,67.6,67.6,29.80,SE,126,0.0,0.0,100,0.00,,---,0.01,0.00,VWS V14.01,2013-09-01 08:22:00,
2013-09-01 04:27:00,67.6,67.6,29.80,SE,126,0.0,0.0,100,0.00,,---,0.01,0.00,VWS V14.01,2013-09-01 08:27:00,
2013-09-01 04:32:00,67.6,67.6,29.80,SE,126,0.0,0.0,100,0.00,,---,0.01,0.00,VWS V14.01,2013-09-01 08:32:00,
2013-09-01 04:37:00,67.8,67.8,29.80,SE,126,0.0,0.0,100,0.00,,---,0.01,0.00,VWS V14.01,2013-09-01 08:37:00,
2013-09-01 04:43:00,67.8,67.8,29.80,SE,126,0.0,0.0,100,0.00,,---,0.01,0.00,VWS V14.01,2013-09-01 08:43:00,
2013-09-01 04:48:00,67.6,67.6,29.81,SE,126,0.0,0.0,100,0.00,,---,0.01,0.00,VWS V14.01,2013-09-01 08:48:00,
2013-09-01 04:53:00,67.6,67.6,29.81,SE,126,0.0,0.0,100,0.00,,---,0.01,0.00,VWS V14.01,2013-09-01 08:53:00,
2013-09-01 04:58:00,67.4,67.4,29.81,SE,126,0.0,0.0,100,0.00,,---,0.01,0.00,VWS V14.01,2013-09-01 08:58:00,
2013-09-01 05:03:00,67.4,67.4,29.81,SE,126,0.0,0.0,100,0.00,,---,0.01,0.00,VWS V14.01,2013-09-01 09:03:00,
2013-09-01 05:08:00,67.4,67.4,29.81,SE,126,0.0,0.0,100,0.00,,---,0.01,0.00,VWS V14.01,2013-09-01 09:08:00,
2013-09-01 05:13:00,67.4,67.4,29.81,SE,126,0.0,0.0,100,0.00,,---,0.01,0.00,VWS V14.01,2013-09-01 09:13:00,
2013-09-01 05:18:00,67.3,67.3,29.81,SE,126,0.0,0.0,100,0.00,,---,0.01,0.00,VWS V14.01,2013-09-01 09:18:00,
2013-09-01 05:23:00,67.3,67.3,29.82,SE,126,0.0,0.0,100,0.00,,---,0.01,0.00,VWS V14.01,2013-09-01 09:23:00,
2013-09-01 05:28:00,67.1,67.1,29.82,SE,126,0.0,0.0,100,0.00,,---,0.01,0.00,VWS V14.01,2013-09-01 09:28:00,
2013-09-01 05:33:00,66.9,66.9,29.82,SE,126,0.0,0.0,100,0.00,,---,0.01,0.00,VWS V14.01,2013-09-01 09:33:00,
2013-09-01 05:38:00,66.8,66.8,29.82,SE,126,0.0,0.0,100,0.00,,---,0.01,0.00,VWS V14.01,2013-09-01 09:38:00,
2013-09-01 05:43:00,66.6,66.6,29.81,SE,126,0.0,0.0,100,0.00,,---,0.01,0.00,VWS V14.01,2013-09-01 09:43:00,
2013-09-01 05:48:00,66.6,66.6,29.81,SE,126,0.0,0.0,100,0.00,,---,0.01,0.00,VWS V14.01,2013-09-01 09:48:00,
2013-09-01 05:53:00,66.4,66.4,29.81,SE,126,0.0,0.0,100,0.00,,---,0.01,0.00,VWS V14.01,2013-09-01 09:53:00,
2013-09-01 05:58:00,66.4,66.4,29.82,SE,126,0.0,0.0,100,0.00,,---,0.01,0.00,VWS V14.01,2013-09-01 09:58:00,
2013-09-01 06:03:00,66.4,66.4,29.81,SE,126,0.0,0.0,100,0.00,,---,0.01,0.00,VWS V14.01,2013-09-01 10:03:00,
2013-09-01 06:08:00,66.1,66.1,29.81,SE,126,0.0,0.0,100,0.00,,---,0.01,0.00,VWS V14.01,2013-09-01 10:08:00,
2013-09-01 06:13:00,66.0,66.0,29.82,SE,126,0.0,0.0,100,0.00,,---,0.01,0.00,VWS V14.01,2013-09-01 10:13:00,
2013-09-01 06:18:00,66.1,66.1,29.81,SE,126,0.0,0.0,100,0.00,,---,0.01,5.00,VWS V14.01,2013-09-01 10:18:00,
2013-09-01 06:23:00,66.3,66.3,29.82,SE,126,0.0,0.0,100,0.00,,---,0.01,11.00,VWS V14.01,2013-09-01 10:23:00,
2013-09-01 06:28:00,66.8,66.8,29.82,SE,126,0.0,0.0,100,0.00,,---,0.01,14.00,VWS V14.01,2013-09-01 10:28:00,
2013-09-01 06:33:00,66.8,66.8,29.82,SE,126,0.0,0.0,100,0.00,,---,0.01,19.00,VWS V14.01,2013-09-01 10:33:00,
2013-09-01 06:38:00,66.9,66.9,29.82,SE,126,0.0,0.0,100,0.00,,---,0.01,21.00,VWS V14.01,2013-09-01 10:38:00,
2013-09-01 06:43:00,67.1,67.1,29.82,SE,126,0.0,0.0,100,0.00,,---,0.01,25.00,VWS V14.01,2013-09-01 10:43:00,
2013-09-01 06:48:00,67.1,67.1,29.82,SE,126,0.0,0.0,100,0.00,,---,0.01,26.00,VWS V14.01,2013-09-01 10:48:00,
2013-09-01 06:53:00,67.1,67.1,29.82,SE,126,0.0,0.0,100,0.00,,---,0.01,30.00,VWS V14.01,2013-09-01 10:53:00,
2013-09-01 06:58:00,67.3,67.3,29.83,SE,126,0.0,0.0,100,0.00,,---,0.01,37.00,VWS V14.01,2013-09-01 10:58:00,
2013-09-01 07:03:00,67.3,67.3,29.83,SE,126,0.0,0.0,100,0.00,,---,0.01,40.00,VWS V14.01,2013-09-01 11:03:00,
2013-09-01 07:08:00,67.3,67.3,29.83,SE,126,0.0,0.0,100,0.00,,---,0.01,42.00,VWS V14.01,2013-09-01 11:08:00,
2013-09-01 07:13:00,67.4,67.4,29.83,SE,126,0.0,0.0,100,0.00,,---,0.01,44.00,VWS V14.01,2013-09-01 11:13:00,
2013-09-01 07:18:00,67.4,67.4,29.83,SE,126,0.0,0.0,100,0.00,,---,0.01,44.00,VWS V14.01,2013-09-01 11:18:00,
2013-09-01 07:23:00,67.6,67.6,29.84,SE,126,0.0,0.0,100,0.00,,---,0.01,42.00,VWS V14.01,2013-09-01 11:23:00,
2013-09-01 07:28:00,67.6,67.6,29.84,SE,126,0.0,0.0,100,0.00,,---,0.01,42.00,VWS V14.01,2013-09-01 11:28:00,
2013-09-01 07:33:00,67.8,67.8,29.84,SE,126,0.0,0.0,100,0.00,,---,0.01,42.00,VWS V14.01,2013-09-01 11:33:00,
2013-09-01 07:38:00,67.8,67.8,29.84,SE,126,0.0,0.0,100,0.00,,---,0.01,40.00,VWS V14.01,2013-09-01 11:38:00,
2013-09-01 07:43:00,67.8,67.8,29.84,SE,126,0.0,0.0,100,0.00,,---,0.01,42.00,VWS V14.01,2013-09-01 11:43:00,
2013-09-01 07:48:00,67.8,67.8,29.85,SE,126,0.0,0.0,100,0.00,,---,0.01,49.00,VWS V14.01,2013-09-01 11:48:00,
2013-09-01 07:53:00,67.9,67.9,29.84,SE,126,0.0,0.0,100,0.00,,---,0.01,51.00,VWS V14.01,2013-09-01 11:53:00,
2013-09-01 07:58:00,68.1,68.1,29.84,SE,126,0.0,0.0,100,0.00,,---,0.01,53.00,VWS V14.01,2013-09-01 11:58:00,
2013-09-01 08:03:00,68.3,68.3,29.85,SE,126,0.0,0.0,100,0.00,,---,0.01,47.00,VWS V14.01,2013-09-01 12:03:00,
2013-09-01 08:08:00,68.4,68.4,29.85,SE,126,0.0,0.0,100,0.00,,---,0.01,51.00,VWS V14.01,2013-09-01 12:08:00,
2013-09-01 08:13:00,68.4,68.4,29.85,SE,126,0.0,0.0,100,0.00,,---,0.01,67.00,VWS V14.01,2013-09-01 12:13:00,
2013-09-01 08:18:00,68.8,68.8,29.85,SE,126,0.0,0.0,100,0.00,,---,0.01,62.00,VWS V14.01,2013-09-01 12:18:00,
2013-09-01 08:23:00,69.1,69.1,29.85,SE,126,0.0,0.0,100,0.00,,---,0.01,72.00,VWS V14.01,2013-09-01 12:23:00,
2013-09-01 08:28:00,69.4,69.4,29.85,SE,126,0.0,0.0,100,0.00,,---,0.01,67.00,VWS V14.01,2013-09-01 12:28:00,
2013-09-01 08:33:00,69.6,69.6,29.85,SE,126,0.0,0.0,100,0.00,,---,0.01,67.00,VWS V14.01,2013-09-01 12:33:00,
2013-09-01 08:38:00,69.8,69.8,29.85,SE,126,0.0,0.0,100,0.00,,---,0.01,70.00,VWS V14.01,2013-09-01 12:38:00,
2013-09-01 08:43:00,69.9,69.9,29.85,SE,126,0.0,0.0,100,0.00,,---,0.01,72.00,VWS V14.01,2013-09-01 12:43:00,
2013-09-01 08:48:00,70.1,70.1,29.85,SE,126,0.0,0.0,100,0.00,,---,0.01,74.00,VWS V14.01,2013-09-01 12:48:00,
2013-09-01 08:53:00,70.3,70.3,29.85,SE,126,0.0,0.0,100,0.00,,---,0.01,81.00,VWS V14.01,2013-09-01 12:53:00,
2013-09-01 08:58:00,70.3,70.3,29.85,SE,126,0.0,0.0,100,0.00,,---,0.01,83.00,VWS V14.01,2013-09-01 12:58:00,
2013-09-01 09:03:00,70.4,70.4,29.85,SE,126,0.0,0.0,100,0.00,,---,0.01,79.00,VWS V14.01,2013-09-01 13:03:00,
2013-09-01 09:09:00,70.6,70.6,29.85,SE,126,0.0,0.0,100,0.00,,---,0.01,221.00,VWS V14.01,2013-09-01 13:09:00,
2013-09-01 09:14:00,70.8,70.8,29.85,SE,126,0.0,0.0,100,0.00,,---,0.01,171.00,VWS V14.01,2013-09-01 13:14:00,
2013-09-01 09:19:00,70.9,70.9,29.85,SE,126,0.0,0.0,100,0.00,,---,0.01,292.00,VWS V14.01,2013-09-01 13:19:00,
2013-09-01 09:24:00,71.8,71.8,29.85,SE,126,0.0,0.0,100,0.00,,---,0.01,452.00,VWS V14.01,2013-09-01 13:24:00,
2013-09-01 09:29:00,72.0,71.7,29.85,SE,126,0.0,0.0,99,0.00,,---,0.01,492.00,VWS V14.01,2013-09-01 13:29:00,
2013-09-01 09:34:00,72.3,71.4,29.85,SE,126,0.0,0.0,97,0.00,,---,0.01,515.00,VWS V14.01,2013-09-01 13:34:00,
2013-09-01 09:39:00,72.8,71.6,29.85,SE,126,0.0,0.0,96,0.00,,---,0.01,534.00,VWS V14.01,2013-09-01 13:39:00,
2013-09-01 09:44:00,73.5,71.4,29.85,ENE,57,0.0,0.0,93,0.00,,---,0.01,527.00,VWS V14.01,2013-09-01 13:44:00,
2013-09-01 09:49:00,73.7,70.6,29.85,ENE,57,0.0,0.0,90,0.00,,---,0.01,559.00,VWS V14.01,2013-09-01 13:49:00,
2013-09-01 09:54:00,74.4,70.6,29.85,NNE,14,0.0,1.0,88,0.00,,---,0.01,606.00,VWS V14.01,2013-09-01 13:54:00,
2013-09-01 09:59:00,74.4,70.6,29.85,NNE,13,0.0,1.0,88,0.00,,---,0.01,606.00,VWS V14.01,2013-09-01 13:59:00,
2013-09-01 10:04:00,75.1,69.9,29.85,NNE,14,0.0,0.0,84,0.00,,---,0.01,575.00,VWS V14.01,2013-09-01 14:04:00,
2013-09-01 10:09:00,74.9,69.7,29.85,NNE,12,0.0,0.0,84,0.00,,---,0.01,171.00,VWS V14.01,2013-09-01 14:09:00,
2013-09-01 10:14:00,74.9,70.1,29.85,NNE,12,0.0,0.0,85,0.00,,---,0.01,197.00,VWS V14.01,2013-09-01 14:14:00,
2013-09-01 10:19:00,75.1,69.9,29.85,NNE,12,0.0,0.0,84,0.00,,---,0.01,633.00,VWS V14.01,2013-09-01 14:19:00,
2013-09-01 10:24:00,76.3,70.1,29.86,NNE,12,0.0,0.0,81,0.00,,---,0.01,659.00,VWS V14.01,2013-09-01 14:24:00,
2013-09-01 10:29:00,76.5,67.6,29.86,NNE,12,0.0,0.0,74,0.00,,---,0.01,679.00,VWS V14.01,2013-09-01 14:29:00,
2013-09-01 10:34:00,76.7,68.2,29.86,NNE,12,0.0,0.0,75,0.00,,---,0.01,768.00,VWS V14.01,2013-09-01 14:34:00,
2013-09-01 10:39:00,76.5,67.2,29.86,NNE,12,0.0,0.0,73,0.00,,---,0.01,281.00,VWS V14.01,2013-09-01 14:39:00,
2013-09-01 10:44:00,76.5,69.1,29.86,NNE,12,0.0,0.0,78,0.00,,---,0.01,490.00,VWS V14.01,2013-09-01 14:44:00,
2013-09-01 10:49:00,77.0,68.9,29.86,WSW,255,0.0,0.0,76,0.00,,---,0.01,524.00,VWS V14.01,2013-09-01 14:49:00,
2013-09-01 10:54:00,77.4,67.7,29.86,WSW,255,0.0,0.0,72,0.00,,---,0.01,410.00,VWS V14.01,2013-09-01 14:54:00,
2013-09-01 10:59:00,77.6,67.9,29.86,WSW,255,0.0,0.0,72,0.00,,---,0.01,265.00,VWS V14.01,2013-09-01 14:59:00,
2013-09-01 11:04:00,77.0,69.2,29.86,WSW,255,0.0,0.0,77,0.00,,---,0.01,283.00,VWS V14.01,2013-09-01 15:04:00,
2013-09-01 11:09:00,76.7,70.1,29.86,WSW,255,0.0,0.0,80,0.00,,---,0.01,301.00,VWS V14.01,2013-09-01 15:09:00,
2013-09-01 11:14:00,76.5,69.1,29.86,WSW,255,0.0,0.0,78,0.00,,---,0.01,325.00,VWS V14.01,2013-09-01 15:14:00,
2013-09-01 11:19:00,76.8,69.8,29.85,WSW,255,0.0,0.0,79,0.00,,---,0.01,374.00,VWS V14.01,2013-09-01 15:19:00,
2013-09-01 11:24:00,76.8,70.2,29.85,WSW,255,0.0,0.0,80,0.00,,---,0.01,334.00,VWS V14.01,2013-09-01 15:24:00,
2013-09-01 11:29:00,77.0,66.9,29.86,WSW,255,0.0,0.0,71,0.00,,---,0.01,285.00,VWS V14.01,2013-09-01 15:29:00,
2013-09-01 11:34:00,77.2,69.1,29.86,WSW,255,0.0,0.0,76,0.00,,---,0.01,281.00,VWS V14.01,2013-09-01 15:34:00,
2013-09-01 11:39:00,76.8,70.2,29.86,WSW,255,0.0,0.0,80,0.00,,---,0.01,295.00,VWS V14.01,2013-09-01 15:39:00,
2013-09-01 11:44:00,76.8,70.5,29.85,WSW,255,0.0,0.0,81,0.00,,---,0.01,297.00,VWS V14.01,2013-09-01 15:44:00,
2013-09-01 11:49:00,76.7,69.3,29.85,WSW,255,0.0,0.0,78,0.00,,---,0.01,380.00,VWS V14.01,2013-09-01 15:49:00,
2013-09-01 11:54:00,77.6,69.4,29.85,WSW,255,0.0,0.0,76,0.00,,---,0.01,563.00,VWS V14.01,2013-09-01 15:54:00,
2013-09-01 11:59:00,77.9,67.3,29.85,WSW,255,0.0,0.0,70,0.00,,---,0.01,624.00,VWS V14.01,2013-09-01 15:59:00,
2013-09-01 12:04:00,78.8,68.2,29.85,WSW,255,0.0,0.0,70,0.00,,---,0.01,584.00,VWS V14.01,2013-09-01 16:04:00,
2013-09-01 12:09:00,78.6,70.0,29.85,WSW,255,0.0,0.0,75,0.00,,---,0.01,548.00,VWS V14.01,2013-09-01 16:09:00,
2013-09-01 12:14:00,78.3,69.7,29.85,WSW,255,0.0,0.0,75,0.00,,---,0.01,396.00,VWS V14.01,2013-09-01 16:14:00,
2013-09-01 12:19:00,78.1,70.3,29.85,WSW,255,0.0,0.0,77,0.00,,---,0.01,359.00,VWS V14.01,2013-09-01 16:19:00,
2013-09-01 12:24:00,77.9,68.2,29.85,WSW,255,0.0,0.0,72,0.00,,---,0.01,362.00,VWS V14.01,2013-09-01 16:24:00,
2013-09-01 12:29:00,78.1,69.9,29.85,WSW,255,0.0,0.0,76,0.00,,---,0.01,445.00,VWS V14.01,2013-09-01 16:29:00,
2013-09-01 12:34:00,78.5,69.1,29.85,WSW,255,0.0,0.0,73,0.00,,---,0.01,520.00,VWS V14.01,2013-09-01 16:34:00,
2013-09-01 12:39:00,78.6,69.2,29.85,NE,43,0.0,1.0,73,0.00,,---,0.01,448.00,VWS V14.01,2013-09-01 16:39:00,
2013-09-01 12:44:00,78.6,71.2,29.85,NE,43,0.0,1.0,78,0.00,,---,0.01,374.00,VWS V14.01,2013-09-01 16:44:00,
2013-09-01 12:49:00,77.9,70.1,29.85,NE,43,0.0,0.0,77,0.00,,---,0.01,415.00,VWS V14.01,2013-09-01 16:49:00,
2013-09-01 12:54:00,77.7,70.3,29.85,NE,43,0.0,0.0,78,0.00,,---,0.01,548.00,VWS V14.01,2013-09-01 16:54:00,
2013-09-01 12:59:00,79.0,68.4,29.85,NE,43,0.0,1.0,70,0.00,,---,0.01,520.00,VWS V14.01,2013-09-01 16:59:00,
2013-09-01 13:04:00,79.0,70.8,29.85,NE,43,0.0,0.0,76,0.00,,---,0.01,471.00,VWS V14.01,2013-09-01 17:04:00,
2013-09-01 13:09:00,79.6,71.0,29.85,NE,43,0.0,0.0,75,0.00,,---,0.01,459.00,VWS V14.01,2013-09-01 17:09:00,
2013-09-01 13:14:00,80.3,72.1,29.85,NE,43,0.0,1.0,76,0.00,,---,0.01,958.00,VWS V14.01,2013-09-01 17:14:00,
2013-09-01 13:19:00,79.9,68.4,29.85,NE,45,0.0,0.0,68,0.00,,---,0.01,606.00,VWS V14.01,2013-09-01 17:19:00,
2013-09-01 13:24:00,79.9,72.1,29.85,NE,46,0.0,0.0,77,0.00,,---,0.01,288.00,VWS V14.01,2013-09-01 17:24:00,
2013-09-01 13:29:00,78.8,70.6,29.85,NE,45,0.0,0.0,76,0.00,,---,0.01,287.00,VWS V14.01,2013-09-01 17:29:00,
2013-09-01 13:34:00,78.5,70.3,29.85,NE,46,0.0,0.0,76,0.00,,---,0.01,394.00,VWS V14.01,2013-09-01 17:34:00,
2013-09-01 13:39:00,79.4,71.2,29.84,NE,46,0.0,0.0,76,0.00,,---,0.01,649.00,VWS V14.01,2013-09-01 17:39:00,
2013-09-01 13:44:00,79.6,72.5,29.84,NE,46,0.0,0.0,79,0.00,,---,0.01,837.00,VWS V14.01,2013-09-01 17:44:00,
2013-09-01 13:49:00,80.3,67.5,29.84,NE,45,0.0,0.0,65,0.00,,---,0.01,817.00,VWS V14.01,2013-09-01 17:49:00,
2013-09-01 13:54:00,80.9,70.6,29.84,NE,45,0.0,2.0,71,0.00,,---,0.01,846.00,VWS V14.01,2013-09-01 17:54:00,
2013-09-01 13:59:00,80.5,70.7,29.84,NE,45,0.0,2.0,72,0.00,,---,0.01,844.00,VWS V14.01,2013-09-01 17:59:00,
2013-09-01 14:04:00,80.9,67.6,29.84,NE,46,0.0,0.0,64,0.00,,---,0.01,466.00,VWS V14.01,2013-09-01 18:04:00,
2013-09-01 14:09:00,81.4,69.0,29.84,NE,46,0.0,2.0,66,0.00,,---,0.01,937.00,VWS V14.01,2013-09-01 18:09:00,
2013-09-01 14:14:00,80.9,71.0,29.84,NE,46,0.0,2.0,72,0.00,,---,0.01,937.00,VWS V14.01,2013-09-01 18:14:00,
2013-09-01 14:19:00,80.3,70.9,29.84,NE,46,0.0,0.0,73,0.00,,---,0.01,884.00,VWS V14.01,2013-09-01 18:19:00,
2013-09-01 14:24:00,81.1,66.9,29.83,NE,45,0.0,3.0,62,0.00,,---,0.01,257.00,VWS V14.01,2013-09-01 18:24:00,
2013-09-01 14:29:00,80.1,67.7,29.84,NE,46,0.0,3.0,66,0.00,,---,0.01,200.00,VWS V14.01,2013-09-01 18:29:00,
2013-09-01 14:34:00,79.6,68.1,29.84,NE,46,0.0,0.0,68,0.00,,---,0.01,202.00,VWS V14.01,2013-09-01 18:34:00,
2013-09-01 14:39:00,79.4,70.4,29.84,NE,46,0.0,0.0,74,0.00,,---,0.01,251.00,VWS V14.01,2013-09-01 18:39:00,
2013-09-01 14:44:00,79.4,68.3,29.84,NE,47,0.0,0.0,69,0.00,,---,0.01,278.00,VWS V14.01,2013-09-01 18:44:00,
2013-09-01 14:49:00,80.3,70.9,29.84,NE,47,0.0,0.0,73,0.00,,---,0.01,225.00,VWS V14.01,2013-09-01 18:49:00,
2013-09-01 14:54:00,79.9,67.5,29.84,NE,46,0.0,1.0,66,0.00,,---,0.01,229.00,VWS V14.01,2013-09-01 18:54:00,
2013-09-01 14:59:00,79.6,70.2,29.84,NE,46,0.0,1.0,73,0.00,,---,0.01,237.00,VWS V14.01,2013-09-01 18:59:00,
2013-09-01 15:04:00,79.0,70.0,29.84,SE,140,3.0,3.0,74,0.00,,---,0.01,271.00,VWS V14.01,2013-09-01 19:04:00,
2013-09-01 15:09:00,79.6,70.6,29.84,SE,135,0.0,3.0,74,0.00,,---,0.01,598.00,VWS V14.01,2013-09-01 19:09:00,
2013-09-01 15:14:00,79.4,70.0,29.84,SSE,153,0.0,3.0,73,0.00,,---,0.01,243.00,VWS V14.01,2013-09-01 19:14:00,
2013-09-01 15:19:00,79.0,70.4,29.84,SSE,155,1.0,1.0,75,0.00,,---,0.01,269.00,VWS V14.01,2013-09-01 19:19:00,
2013-09-01 15:24:00,78.6,69.6,29.84,South,180,0.0,2.0,74,0.00,,---,0.01,167.00,VWS V14.01,2013-09-01 19:24:00,
2013-09-01 15:29:00,78.5,69.9,29.84,SSE,168,0.0,2.0,75,0.00,,---,0.01,176.00,VWS V14.01,2013-09-01 19:29:00,
2013-09-01 15:34:00,78.3,70.5,29.84,SSE,168,0.0,0.0,77,0.00,,---,0.01,308.00,VWS V14.01,2013-09-01 19:34:00,
2013-09-01 15:39:00,78.5,70.3,29.83,SSE,166,0.0,3.0,76,0.00,,---,0.01,248.00,VWS V14.01,2013-09-01 19:39:00,
2013-09-01 15:44:00,79.0,70.4,29.83,SSE,166,0.0,3.0,75,0.00,,---,0.01,183.00,VWS V14.01,2013-09-01 19:44:00,
2013-09-01 15:49:00,79.4,71.2,29.83,ENE,78,1.0,1.0,76,0.00,,---,0.01,209.00,VWS V14.01,2013-09-01 19:49:00,
2013-09-01 15:54:00,79.2,71.0,29.83,ENE,78,0.0,1.0,76,0.00,,---,0.01,195.00,VWS V14.01,2013-09-01 19:54:00,
2013-09-01 15:59:00,78.6,69.2,29.83,South,185,0.0,1.0,73,0.00,,---,0.01,202.00,VWS V14.01,2013-09-01 19:59:00,
2013-09-01 16:04:00,78.6,68.8,29.83,SSW,207,0.0,0.0,72,0.00,,---,0.01,162.00,VWS V14.01,2013-09-01 20:04:00,
2013-09-01 16:09:00,78.5,70.3,29.83,SSW,206,0.0,0.0,76,0.00,,---,0.01,151.00,VWS V14.01,2013-09-01 20:09:00,
2013-09-01 16:14:00,78.8,70.6,29.83,SSW,205,0.0,0.0,76,0.00,,---,0.01,156.00,VWS V14.01,2013-09-01 20:14:00,
2013-09-01 16:19:00,78.3,70.5,29.83,SSW,205,0.0,0.0,77,0.00,,---,0.01,104.00,VWS V14.01,2013-09-01 20:19:00,
2013-09-01 16:24:00,77.9,70.9,29.83,SSW,205,0.0,0.0,79,0.00,,---,0.01,74.00,VWS V14.01,2013-09-01 20:24:00,
2013-09-01 16:29:00,77.4,70.8,29.84,SSW,205,0.0,0.0,80,0.00,,---,0.01,74.00,VWS V14.01,2013-09-01 20:29:00,
2013-09-01 16:34:00,76.8,70.5,29.84,SSW,205,0.0,0.0,81,0.00,,---,0.01,90.00,VWS V14.01,2013-09-01 20:34:00,
2013-09-01 16:39:00,76.7,70.4,29.84,SSW,205,0.0,0.0,81,0.00,,---,0.01,88.00,VWS V14.01,2013-09-01 20:39:00,
2013-09-01 16:44:00,76.7,70.8,29.84,SSW,205,0.0,0.0,82,0.00,,---,0.01,83.00,VWS V14.01,2013-09-01 20:44:00,
2013-09-01 16:49:00,76.8,70.5,29.83,SSW,205,0.0,0.0,81,0.00,,---,0.01,109.00,VWS V14.01,2013-09-01 20:49:00,
2013-09-01 16:54:00,76.7,71.5,29.84,SSW,205,0.0,0.0,84,0.00,,---,0.01,98.00,VWS V14.01,2013-09-01 20:54:00,
2013-09-01 16:59:00,77.2,71.6,29.83,SSW,205,0.0,0.0,83,0.00,,---,0.01,125.00,VWS V14.01,2013-09-01 20:59:00,
2013-09-01 17:04:00,77.4,71.8,29.83,SSW,205,0.0,0.0,83,0.00,,---,0.01,165.00,VWS V14.01,2013-09-01 21:04:00,
2013-09-01 17:09:00,77.6,72.0,29.83,SSW,205,0.0,0.0,83,0.00,,---,0.01,148.00,VWS V14.01,2013-09-01 21:09:00,
2013-09-01 17:14:00,77.6,72.0,29.83,SSW,205,0.0,0.0,83,0.00,,---,0.01,118.00,VWS V14.01,2013-09-01 21:14:00,
2013-09-01 17:19:00,77.4,70.8,29.83,SSW,205,0.0,0.0,80,0.00,,---,0.01,95.00,VWS V14.01,2013-09-01 21:19:00,
2013-09-01 17:25:00,77.6,70.6,29.83,SSW,205,0.0,0.0,79,0.00,,---,0.01,62.00,VWS V14.01,2013-09-01 21:25:00,
2013-09-01 17:30:00,77.6,70.9,29.83,SSW,205,0.0,0.0,80,0.00,,---,0.01,44.00,VWS V14.01,2013-09-01 21:30:00,
2013-09-01 17:35:00,77.0,69.6,29.84,SSW,205,0.0,0.0,78,0.00,,---,0.01,40.00,VWS V14.01,2013-09-01 21:35:00,
2013-09-01 17:39:00,77.0,70.0,29.84,SSW,205,0.0,0.0,79,0.00,,---,0.01,44.00,VWS V14.01,2013-09-01 21:39:00,
2013-09-01 17:44:00,76.7,71.5,29.84,SSW,205,0.0,0.0,84,0.00,,---,0.01,47.00,VWS V14.01,2013-09-01 21:44:00,
2013-09-01 17:50:00,76.3,71.5,29.84,SSW,205,0.0,0.0,85,0.00,,---,0.01,54.00,VWS V14.01,2013-09-01 21:50:00,
2013-09-01 17:54:00,76.3,71.8,29.84,SSW,205,0.0,0.0,86,0.00,,---,0.01,49.00,VWS V14.01,2013-09-01 21:54:00,
2013-09-01 17:59:00,76.3,72.2,29.84,SSW,205,0.0,0.0,87,0.00,,---,0.01,65.00,VWS V14.01,2013-09-01 21:59:00,
2013-09-01 18:05:00,76.1,71.9,29.83,SSW,205,0.0,0.0,87,0.00,,---,0.01,70.00,VWS V14.01,2013-09-01 22:05:00,
2013-09-01 18:10:00,76.0,71.9,29.84,SSW,205,0.0,0.0,87,0.00,,---,0.01,58.00,VWS V14.01,2013-09-01 22:10:00,
2013-09-01 18:15:00,76.0,72.2,29.84,SSW,205,0.0,0.0,88,0.00,,---,0.01,46.00,VWS V14.01,2013-09-01 22:15:00,
2013-09-01 18:20:00,76.0,71.9,29.83,SSW,205,0.0,0.0,87,0.00,,---,0.01,47.00,VWS V14.01,2013-09-01 22:20:00,
2013-09-01 18:25:00,75.6,71.5,29.84,SSW,205,0.0,0.0,87,0.00,,---,0.01,54.00,VWS V14.01,2013-09-01 22:25:00,
2013-09-01 18:30:00,75.6,71.1,29.83,SSW,205,0.0,0.0,86,0.00,,---,0.01,47.00,VWS V14.01,2013-09-01 22:30:00,
2013-09-01 18:35:00,75.8,72.0,29.83,SSW,205,0.0,0.0,88,0.00,,---,0.01,28.00,VWS V14.01,2013-09-01 22:35:00,
2013-09-01 18:40:00,75.4,71.6,29.83,SSW,205,0.0,0.0,88,0.00,,---,0.01,21.00,VWS V14.01,2013-09-01 22:40:00,
2013-09-01 18:45:00,75.3,71.5,29.83,SSW,205,0.0,0.0,88,0.00,,---,0.01,18.00,VWS V14.01,2013-09-01 22:45:00,
2013-09-01 18:50:00,75.3,71.2,29.84,SSW,205,0.0,0.0,87,0.00,,---,0.01,14.00,VWS V14.01,2013-09-01 22:50:00,
2013-09-01 18:55:00,75.3,71.8,29.84,SSW,205,0.0,0.0,89,0.00,,---,0.01,9.00,VWS V14.01,2013-09-01 22:55:00,
2013-09-01 19:00:00,75.1,71.6,29.84,SSW,205,0.0,0.0,89,0.00,,---,0.01,7.00,VWS V14.01,2013-09-01 23:00:00,
2013-09-01 19:05:00,75.1,72.0,29.84,SSW,205,0.0,0.0,90,0.00,,---,0.01,0.00,VWS V14.01,2013-09-01 23:05:00,
2013-09-01 19:10:00,74.9,71.8,29.84,SSW,205,0.0,0.0,90,0.00,,---,0.01,0.00,VWS V14.01,2013-09-01 23:10:00,
2013-09-01 19:15:00,74.7,71.9,29.84,SSW,205,0.0,0.0,91,0.00,,---,0.01,0.00,VWS V14.01,2013-09-01 23:15:00,
2013-09-01 19:20:00,74.6,71.8,29.85,SSW,205,0.0,0.0,91,0.00,,---,0.01,0.00,VWS V14.01,2013-09-01 23:20:00,
2013-09-01 19:25:00,74.4,71.6,29.85,SSW,205,0.0,0.0,91,0.00,,---,0.01,0.00,VWS V14.01,2013-09-01 23:25:00,
2013-09-01 19:30:00,74.2,71.4,29.85,ESE,103,3.0,5.0,91,0.00,,---,0.01,0.00,VWS V14.01,2013-09-01 23:30:00,
2013-09-01 19:35:00,74.6,71.2,29.85,SSE,156,2.0,4.0,89,0.00,,---,0.01,0.00,VWS V14.01,2013-09-01 23:35:00,
2013-09-01 19:40:00,74.7,70.9,29.85,ENE,68,0.0,5.0,88,0.00,,---,0.01,0.00,VWS V14.01,2013-09-01 23:40:00,
2013-09-01 19:45:00,74.6,70.5,29.84,ESE,102,0.0,5.0,87,0.00,,---,0.01,0.00,VWS V14.01,2013-09-01 23:45:00,
2013-09-01 19:50:00,74.4,70.3,29.84,ESE,102,0.0,0.0,87,0.00,,---,0.01,0.00,VWS V14.01,2013-09-01 23:50:00,
2013-09-01 19:55:00,74.0,70.2,29.84,ESE,102,0.0,0.0,88,0.00,,---,0.01,0.00,VWS V14.01,2013-09-01 23:55:00,
2013-09-01 20:00:00,73.9,70.1,29.85,SSE,167,0.0,0.0,88,0.00,,---,0.01,0.00,VWS V14.01,2013-09-02 00:00:00,
2013-09-01 20:31:00,72.1,69.7,29.86,South,177,0.0,2.0,92,0.13,,---,0.14,0.00,VWS V14.01,2013-09-02 00:31:00,
2013-09-01 20:36:00,71.8,70.0,29.87,South,174,0.0,0.0,94,0.18,,---,0.19,0.00,VWS V14.01,2013-09-02 00:36:00,
2013-09-01 20:41:00,71.6,70.1,29.86,ESE,111,0.0,2.0,95,0.20,,---,0.21,0.00,VWS V14.01,2013-09-02 00:41:00,
2013-09-01 20:46:00,71.6,70.1,29.86,SSE,152,1.0,2.0,95,0.22,,---,0.23,0.00,VWS V14.01,2013-09-02 00:46:00,
2013-09-01 20:51:00,71.5,70.3,29.86,SE,145,0.0,2.0,96,0.25,,---,0.26,0.00,VWS V14.01,2013-09-02 00:51:00,
2013-09-01 20:56:00,71.6,70.4,29.86,SE,145,0.0,2.0,96,0.27,,---,0.28,0.00,VWS V14.01,2013-09-02 00:56:00,
2013-09-01 21:02:00,71.5,70.3,29.85,SE,145,0.0,2.0,96,0.28,,---,0.29,0.00,VWS V14.01,2013-09-02 01:02:00,
2013-09-01 21:07:00,71.3,70.4,29.85,SE,145,0.0,0.0,97,0.29,,---,0.30,0.00,VWS V14.01,2013-09-02 01:07:00,
2013-09-01 21:12:00,71.5,70.6,29.86,SE,140,0.0,0.0,97,0.32,,---,0.33,0.00,VWS V14.01,2013-09-02 01:12:00,
2013-09-01 21:17:00,71.5,70.9,29.85,SE,140,0.0,0.0,98,0.33,,---,0.34,0.00,VWS V14.01,2013-09-02 01:17:00,
2013-09-01 21:22:00,71.3,70.7,29.85,SE,141,0.0,1.0,98,0.33,,---,0.34,0.00,VWS V14.01,2013-09-02 01:22:00,
2013-09-01 21:27:00,71.3,70.7,29.85,SE,142,0.0,2.0,98,0.34,,---,0.35,0.00,VWS V14.01,2013-09-02 01:27:00,
2013-09-01 21:32:00,71.1,70.8,29.86,SE,142,0.0,2.0,99,0.34,,---,0.35,0.00,VWS V14.01,2013-09-02 01:32:00,
2013-09-01 21:37:00,71.1,70.8,29.86,SE,142,0.0,0.0,99,0.20,,---,0.35,0.00,VWS V14.01,2013-09-02 01:37:00,
2013-09-01 21:42:00,71.1,70.8,29.85,SE,142,0.0,0.0,99,0.20,,---,0.35,0.00,VWS V14.01,2013-09-02 01:42:00,
2013-09-01 21:47:00,71.1,70.8,29.86,SE,142,0.0,0.0,99,0.20,,---,0.35,0.00,VWS V14.01,2013-09-02 01:47:00,
2013-09-01 21:52:00,71.1,70.8,29.86,SE,142,0.0,0.0,99,0.11,,---,0.35,0.00,VWS V14.01,2013-09-02 01:52:00,
2013-09-01 21:57:00,71.1,70.8,29.86,SE,142,0.0,0.0,99,0.11,,---,0.35,0.00,VWS V14.01,2013-09-02 01:57:00,
2013-09-01 22:02:00,71.1,70.8,29.87,SE,142,0.0,0.0,99,0.11,,---,0.35,0.00,VWS V14.01,2013-09-02 02:02:00,
2013-09-01 22:07:00,70.9,70.6,29.87,SE,142,0.0,0.0,99,0.06,,---,0.35,0.00,VWS V14.01,2013-09-02 02:07:00,
2013-09-01 22:12:00,70.9,70.6,29.87,SE,142,0.0,0.0,99,0.06,,---,0.35,0.00,VWS V14.01,2013-09-02 02:12:00,
2013-09-01 22:17:00,71.1,70.8,29.87,SE,142,0.0,0.0,99,0.06,,---,0.35,0.00,VWS V14.01,2013-09-02 02:17:00,
2013-09-01 22:22:00,71.1,70.8,29.87,SE,142,0.0,0.0,99,0.01,,---,0.35,0.00,VWS V14.01,2013-09-02 02:22:00,
2013-09-01 22:27:00,71.1,71.1,29.87,SE,142,0.0,0.0,100,0.01,,---,0.35,0.00,VWS V14.01,2013-09-02 02:27:00,
2013-09-01 22:32:00,71.1,71.1,29.87,SE,142,0.0,0.0,100,0.01,,---,0.35,0.00,VWS V14.01,2013-09-02 02:32:00,
2013-09-01 22:37:00,71.1,71.1,29.87,SE,142,0.0,0.0,100,0.00,,---,0.35,0.00,VWS V14.01,2013-09-02 02:37:00,
2013-09-01 22:42:00,71.1,71.1,29.87,SE,142,0.0,0.0,100,0.00,,---,0.35,0.00,VWS V14.01,2013-09-02 02:42:00,
2013-09-01 22:47:00,71.1,71.1,29.87,SE,142,0.0,0.0,100,0.00,,---,0.35,0.00,VWS V14.01,2013-09-02 02:47:00,
2013-09-01 22:52:00,70.9,70.9,29.87,SE,142,0.0,0.0,100,0.00,,---,0.35,0.00,VWS V14.01,2013-09-02 02:52:00,
2013-09-01 22:57:00,70.9,70.9,29.88,SE,142,0.0,0.0,100,0.00,,---,0.35,0.00,VWS V14.01,2013-09-02 02:57:00,
2013-09-01 23:02:00,70.9,70.9,29.88,East,82,0.0,0.0,100,0.00,,---,0.35,0.00,VWS V14.01,2013-09-02 03:02:00,
2013-09-01 23:07:00,70.9,70.9,29.88,ESE,109,0.0,1.0,100,0.00,,---,0.35,0.00,VWS V14.01,2013-09-02 03:07:00,
2013-09-01 23:12:00,70.9,70.9,29.87,ESE,110,0.0,1.0,100,0.00,,---,0.35,0.00,VWS V14.01,2013-09-02 03:12:00,
2013-09-01 23:17:00,70.8,70.8,29.87,ESE,110,0.0,0.0,100,0.00,,---,0.35,0.00,VWS V14.01,2013-09-02 03:17:00,
2013-09-01 23:22:00,70.8,70.8,29.87,ESE,116,2.0,2.0,100,0.07,,---,0.42,0.00,VWS V14.01,2013-09-02 03:22:00,
2013-09-01 23:27:00,70.4,70.4,29.87,SE,140,1.0,2.0,100,0.09,,---,0.44,0.00,VWS V14.01,2013-09-02 03:27:00,
2013-09-01 23:32:00,70.4,70.4,29.87,SE,140,0.0,2.0,100,0.09,,---,0.44,0.00,VWS V14.01,2013-09-02 03:32:00,
2013-09-01 23:37:00,70.3,70.3,29.87,SE,140,0.0,0.0,100,0.09,,---,0.44,0.00,VWS V14.01,2013-09-02 03:37:00,
2013-09-01 23:42:00,70.4,70.4,29.87,SE,140,0.0,0.0,100,0.09,,---,0.44,0.00,VWS V14.01,2013-09-02 03:42:00,
2013-09-01 23:47:00,70.4,70.4,29.87,SE,140,0.0,0.0,100,0.09,,---,0.44,0.00,VWS V14.01,2013-09-02 03:47:00,
2013-09-01 23:52:00,70.3,70.3,29.87,SE,140,0.0,0.0,100,0.09,,---,0.44,0.00,VWS V14.01,2013-09-02 03:52:00,
2013-09-01 23:57:00,70.4,70.4,29.87,SE,140,0.0,0.0,100,0.09,,---,0.44,0.00,VWS V14.01,2013-09-02 03:57:00,